createdAt,value
2017-10-26T00:01:24.838Z,1.47
2017-10-26T00:03:53.846Z,1.40
2017-10-26T00:06:21.738Z,1.83
2017-10-26T00:08:49.631Z,1.87
2017-10-26T00:11:17.131Z,2.37
2017-10-26T00:13:44.624Z,1.40
2017-10-26T00:16:12.123Z,1.33
2017-10-26T00:18:39.634Z,1.17
2017-10-26T00:21:07.163Z,1.20
2017-10-26T00:23:34.651Z,1.40
2017-10-26T00:26:02.914Z,1.10
2017-10-26T00:28:30.407Z,1.00
2017-10-26T00:30:57.916Z,1.10
2017-10-26T00:33:26.172Z,1.07
2017-10-26T00:35:54.065Z,1.37
2017-10-26T00:38:21.587Z,1.43
2017-10-26T00:40:49.079Z,1.30
2017-10-26T00:43:16.598Z,1.37
2017-10-26T00:45:44.881Z,1.10
2017-10-26T00:48:12.399Z,1.37
2017-10-26T00:50:40.289Z,1.30
2017-10-26T00:53:08.213Z,1.17
2017-10-26T00:55:35.709Z,1.00
2017-10-26T00:58:04.733Z,1.40
2017-10-26T01:00:32.227Z,1.00
2017-10-26T01:02:59.741Z,1.07
2017-10-26T01:05:28.003Z,1.40
2017-10-26T01:07:57.051Z,1.37
2017-10-26T01:10:24.569Z,1.80
2017-10-26T01:12:52.074Z,1.10
2017-10-26T01:15:19.584Z,1.10
2017-10-26T01:17:47.089Z,1.30
2017-10-26T01:20:15.358Z,1.30
2017-10-26T01:22:42.853Z,1.50
2017-10-26T01:25:10.355Z,1.10
2017-10-26T01:27:37.866Z,1.40
2017-10-26T01:30:05.368Z,1.43
2017-10-26T01:32:32.859Z,1.10
2017-10-26T01:35:00.364Z,1.10
2017-10-26T01:37:27.867Z,1.50
2017-10-26T01:39:55.359Z,1.47
2017-10-26T01:42:23.635Z,1.00
2017-10-26T01:44:51.135Z,1.30
2017-10-26T01:47:19.405Z,1.37
2017-10-26T01:49:48.036Z,1.23
2017-10-26T01:52:15.932Z,1.20
2017-10-26T01:54:43.825Z,1.30
2017-10-26T01:57:11.790Z,1.50
2017-10-26T01:59:39.293Z,1.40
2017-10-26T02:02:06.791Z,1.40
2017-10-26T02:04:34.283Z,1.33
2017-10-26T02:07:01.779Z,1.60
2017-10-26T02:09:29.284Z,1.43
2017-10-26T02:11:56.782Z,1.63
2017-10-26T02:14:24.271Z,2.00
2017-10-26T02:16:53.134Z,1.93
2017-10-26T02:19:21.408Z,1.77
2017-10-26T02:21:48.903Z,1.37
2017-10-26T02:24:17.543Z,1.63
2017-10-26T02:26:45.040Z,1.93
2017-10-26T02:29:36.991Z,1.80
2017-10-26T02:32:04.499Z,1.60
2017-10-26T02:34:32.770Z,1.83
2017-10-26T02:37:01.049Z,1.47
2017-10-26T02:39:29.327Z,1.57
2017-10-26T02:41:57.603Z,1.50
2017-10-26T02:44:26.627Z,1.57
2017-10-26T02:46:54.122Z,1.40
2017-10-26T02:49:21.647Z,1.50
2017-10-26T02:51:49.147Z,1.87
2017-10-26T02:54:16.672Z,1.60
2017-10-26T02:56:45.511Z,1.77
2017-10-26T02:59:13.031Z,1.80
2017-10-26T03:01:40.526Z,2.20
2017-10-26T03:04:08.045Z,2.57
2017-10-26T03:06:35.933Z,2.30
2017-10-26T03:09:03.455Z,2.20
2017-10-26T03:11:30.955Z,1.30
2017-10-26T03:13:58.474Z,1.90
2017-10-26T03:16:25.977Z,1.33
2017-10-26T03:18:53.494Z,1.70
2017-10-26T03:21:22.126Z,1.30
2017-10-26T03:23:49.641Z,1.40
2017-10-26T03:26:17.537Z,1.90
2017-10-26T03:28:45.060Z,1.60
2017-10-26T03:31:13.324Z,1.50
2017-10-26T03:33:41.239Z,1.27
2017-10-26T03:36:08.743Z,1.70
2017-10-26T03:38:36.655Z,1.60
2017-10-26T03:41:04.158Z,1.30
2017-10-26T03:43:32.419Z,2.07
2017-10-26T03:45:59.931Z,1.40
2017-10-26T03:48:27.440Z,1.20
2017-10-26T03:50:54.951Z,1.27
2017-10-26T03:53:23.579Z,1.37
2017-10-26T03:55:51.846Z,1.03
2017-10-26T03:58:19.339Z,1.67
2017-10-26T04:00:46.844Z,1.50
2017-10-26T04:03:15.111Z,1.37
2017-10-26T04:05:44.110Z,1.90
2017-10-26T04:08:11.622Z,2.00
2017-10-26T04:10:40.259Z,1.80
2017-10-26T04:13:07.763Z,2.17
2017-10-26T04:15:36.412Z,2.00
2017-10-26T04:18:04.671Z,2.10
2017-10-26T04:20:32.939Z,2.00
2017-10-26T04:23:00.438Z,1.83
2017-10-26T04:25:29.453Z,2.50
2017-10-26T04:27:56.960Z,2.30
2017-10-26T04:30:25.499Z,2.43
2017-10-26T04:32:54.479Z,2.27
2017-10-26T04:35:23.353Z,2.03
2017-10-26T04:37:50.991Z,1.80
2017-10-26T04:40:18.483Z,1.90
2017-10-26T04:42:46.742Z,2.23
2017-10-26T04:45:15.031Z,2.60
2017-10-26T04:47:42.531Z,1.90
2017-10-26T04:50:10.060Z,2.33
2017-10-26T04:52:37.564Z,2.13
2017-10-26T04:55:05.096Z,3.00
2017-10-26T04:57:33.364Z,1.90
2017-10-26T05:00:01.275Z,2.67
2017-10-26T05:02:28.779Z,2.03
2017-10-26T05:04:56.313Z,2.03
2017-10-26T05:07:23.826Z,1.87
2017-10-26T05:09:51.346Z,2.03
2017-10-26T05:12:19.246Z,2.40
2017-10-26T05:14:46.774Z,2.70
2017-10-26T05:17:15.416Z,2.27
2017-10-26T05:19:43.332Z,5.03
2017-10-26T05:22:11.598Z,5.67
2017-10-26T05:24:40.626Z,5.57
2017-10-26T05:27:08.127Z,5.87
2017-10-26T05:29:36.419Z,8.47
2017-10-26T05:32:04.315Z,6.90
2017-10-26T05:34:31.834Z,7.27
2017-10-26T05:37:00.579Z,7.63
2017-10-26T05:39:28.140Z,7.40
2017-10-26T05:41:55.638Z,7.30
2017-10-26T05:44:23.562Z,8.27
2017-10-26T05:46:51.454Z,7.50
2017-10-26T05:49:19.727Z,8.63
2017-10-26T05:51:47.998Z,7.67
2017-10-26T05:54:16.267Z,6.70
2017-10-26T05:56:44.168Z,6.97
2017-10-26T05:59:11.668Z,7.20
2017-10-26T06:01:39.178Z,7.03
2017-10-26T06:04:06.676Z,7.27
2017-10-26T06:06:35.687Z,5.17
2017-10-26T06:09:04.570Z,5.67
2017-10-26T06:11:33.440Z,4.77
2017-10-26T06:14:02.068Z,4.23
2017-10-26T06:16:30.942Z,4.40
2017-10-26T06:18:58.831Z,3.57
2017-10-26T06:21:27.123Z,3.07
2017-10-26T06:23:54.619Z,3.37
2017-10-26T06:26:22.147Z,2.40
2017-10-26T06:28:51.155Z,2.50
2017-10-26T06:31:19.871Z,2.40
2017-10-26T06:33:47.375Z,2.30
2017-10-26T06:36:14.908Z,2.10
2017-10-26T06:38:42.402Z,2.43
2017-10-26T06:41:10.114Z,2.87
2017-10-26T06:43:37.615Z,1.80
2017-10-26T06:46:06.648Z,2.60
2017-10-26T06:48:34.151Z,2.33
2017-10-26T06:51:01.674Z,2.10
2017-10-26T06:53:29.951Z,2.20
2017-10-26T06:55:57.463Z,2.83
2017-10-26T06:58:25.359Z,2.60
2017-10-26T07:00:52.870Z,3.20
2017-10-26T07:03:20.375Z,2.83
2017-10-26T07:05:47.891Z,3.17
2017-10-26T07:08:16.886Z,3.77
2017-10-26T07:10:45.567Z,3.43
2017-10-26T07:13:14.199Z,3.60
2017-10-26T07:15:41.703Z,3.33
2017-10-26T07:18:10.716Z,3.13
2017-10-26T07:20:38.607Z,3.50
2017-10-26T07:23:06.874Z,3.20
2017-10-26T07:25:34.368Z,3.70
2017-10-26T07:28:01.871Z,2.87
2017-10-26T07:30:29.371Z,2.60
2017-10-26T07:32:56.872Z,2.77
2017-10-26T07:35:25.498Z,2.27
2017-10-26T07:37:52.996Z,2.20
2017-10-26T07:40:20.511Z,3.00
2017-10-26T07:42:48.015Z,1.93
2017-10-26T07:45:15.915Z,2.63
2017-10-26T07:47:43.416Z,2.37
2017-10-26T07:50:10.919Z,2.13
2017-10-26T07:52:38.443Z,2.23
2017-10-26T07:55:05.943Z,2.10
2017-10-26T07:57:33.463Z,1.90
2017-10-26T08:00:00.968Z,2.30
2017-10-26T08:02:29.297Z,1.67
2017-10-26T08:04:57.577Z,1.73
2017-10-26T08:07:25.863Z,1.90
2017-10-26T08:09:54.506Z,1.90
2017-10-26T08:12:23.158Z,1.83
2017-10-26T08:14:51.418Z,1.50
2017-10-26T08:17:18.933Z,1.70
2017-10-26T08:19:46.435Z,2.00
2017-10-26T08:22:13.946Z,1.40
2017-10-26T08:24:41.448Z,1.53
2017-10-26T08:27:08.967Z,1.80
2017-10-26T08:29:36.464Z,1.43
2017-10-26T08:32:03.984Z,1.70
2017-10-26T08:34:31.503Z,1.20
2017-10-26T08:36:59.787Z,1.37
2017-10-26T08:39:27.289Z,1.47
2017-10-26T08:41:54.794Z,1.60
2017-10-26T08:44:22.287Z,1.37
2017-10-26T08:46:50.570Z,1.10
2017-10-26T08:49:18.063Z,1.40
2017-10-26T08:51:46.739Z,1.20
2017-10-26T08:54:15.003Z,1.33
2017-10-26T08:56:42.519Z,1.17
2017-10-26T08:59:10.024Z,1.30
2017-10-26T09:01:38.301Z,1.53
2017-10-26T09:04:05.806Z,1.20
2017-10-26T09:06:34.473Z,1.70
2017-10-26T09:09:01.990Z,1.17
2017-10-26T09:11:30.275Z,1.20
2017-10-26T09:13:58.536Z,1.23
2017-10-26T09:16:26.425Z,1.57
2017-10-26T09:18:54.316Z,1.20
2017-10-26T09:21:21.828Z,1.47
2017-10-26T09:23:49.331Z,1.33
2017-10-26T09:26:16.826Z,1.43
2017-10-26T09:28:44.728Z,1.53
2017-10-26T09:31:12.229Z,1.53
2017-10-26T09:33:40.119Z,1.50
2017-10-26T09:36:08.390Z,1.10
2017-10-26T09:38:36.283Z,1.13
2017-10-26T09:41:03.787Z,2.97
2017-10-26T09:43:31.291Z,1.43
2017-10-26T09:45:58.793Z,1.20
2017-10-26T09:48:27.658Z,1.00
2017-10-26T09:50:55.158Z,1.43
2017-10-26T09:53:23.435Z,1.23
2017-10-26T09:55:51.697Z,1.20
2017-10-26T09:58:20.011Z,1.50
2017-10-26T10:00:47.907Z,1.23
2017-10-26T10:03:16.192Z,1.30
2017-10-26T10:05:43.692Z,1.17
2017-10-26T10:08:11.977Z,1.10
2017-10-26T10:10:39.483Z,1.60
2017-10-26T10:13:07.007Z,1.40
2017-10-26T10:15:35.262Z,1.10
2017-10-26T10:18:02.782Z,1.23
2017-10-26T10:20:30.662Z,0.90
2017-10-26T10:22:58.170Z,1.60
2017-10-26T10:25:26.070Z,1.57
2017-10-26T10:27:53.603Z,1.77
2017-10-26T10:30:22.248Z,1.30
2017-10-26T10:32:49.774Z,1.20
2017-10-26T10:35:17.675Z,1.10
2017-10-26T10:37:45.199Z,1.50
2017-10-26T10:40:12.710Z,1.30
2017-10-26T10:42:41.374Z,1.37
2017-10-26T10:45:08.875Z,1.17
2017-10-26T10:47:37.163Z,1.37
2017-10-26T10:50:04.659Z,1.50
2017-10-26T10:52:32.175Z,1.30
2017-10-26T10:54:59.676Z,1.40
2017-10-26T10:57:27.195Z,1.40
2017-10-26T11:00:00.355Z,1.60
2017-10-26T11:02:28.627Z,1.73
2017-10-26T11:04:56.889Z,1.33
2017-10-26T11:07:25.182Z,1.30
2017-10-26T11:09:53.446Z,1.80
2017-10-26T11:12:21.733Z,1.20
2017-10-26T11:14:50.379Z,1.40
2017-10-26T11:17:17.912Z,1.20
2017-10-26T11:19:45.423Z,1.30
2017-10-26T11:22:12.951Z,1.30
2017-10-26T11:24:40.442Z,1.20
2017-10-26T11:27:07.971Z,1.00
2017-10-26T11:29:35.471Z,1.20
2017-10-26T11:32:02.984Z,1.53
2017-10-26T11:34:30.871Z,1.10
2017-10-26T11:36:59.131Z,1.33
2017-10-26T11:39:27.029Z,1.40
2017-10-26T11:41:54.523Z,1.10
2017-10-26T11:44:22.020Z,1.20
2017-10-26T11:46:49.914Z,1.20
2017-10-26T11:49:17.422Z,1.00
2017-10-26T11:51:46.057Z,1.50
2017-10-26T11:54:13.579Z,1.20
2017-10-26T11:56:41.078Z,1.33
2017-10-26T11:59:08.598Z,1.30
2017-10-26T12:01:36.103Z,1.10
2017-10-26T12:04:03.621Z,1.17
2017-10-26T12:06:31.135Z,1.23
2017-10-26T12:08:59.053Z,1.30
2017-10-26T12:11:26.549Z,1.23
2017-10-26T12:13:55.410Z,1.67
2017-10-26T12:16:24.048Z,1.33
2017-10-26T12:18:51.959Z,1.40
2017-10-26T12:21:19.455Z,1.40
2017-10-26T12:23:48.124Z,1.33
2017-10-26T12:26:16.014Z,1.63
2017-10-26T12:28:44.888Z,1.53
2017-10-26T12:31:12.387Z,1.87
2017-10-26T12:33:40.296Z,1.70
2017-10-26T12:36:08.559Z,1.40
2017-10-26T12:38:37.439Z,1.40
2017-10-26T12:41:04.934Z,1.60
2017-10-26T12:43:33.212Z,1.30
2017-10-26T12:46:00.711Z,1.23
2017-10-26T12:48:28.227Z,1.40
2017-10-26T12:50:55.731Z,1.67
2017-10-26T12:53:23.248Z,1.43
2017-10-26T12:55:50.746Z,1.70
2017-10-26T12:58:18.265Z,1.87
2017-10-26T13:00:47.271Z,1.80
2017-10-26T13:03:14.792Z,1.90
2017-10-26T13:05:42.296Z,1.30
2017-10-26T13:08:09.807Z,1.30
2017-10-26T13:10:37.302Z,1.20
2017-10-26T13:13:05.207Z,1.07
2017-10-26T13:15:32.710Z,1.30
2017-10-26T13:18:00.281Z,1.80
2017-10-26T13:20:27.782Z,1.70
2017-10-26T13:22:55.342Z,1.00
2017-10-26T13:25:23.235Z,1.30
2017-10-26T13:27:51.515Z,1.20
2017-10-26T13:30:20.548Z,1.40
2017-10-26T13:32:48.835Z,1.27
2017-10-26T13:35:16.353Z,1.47
2017-10-26T13:37:44.277Z,1.30
2017-10-26T13:40:11.770Z,2.00
2017-10-26T13:42:39.296Z,1.20
2017-10-26T13:45:06.801Z,1.70
2017-10-26T13:47:35.064Z,1.50
2017-10-26T13:50:03.339Z,1.57
2017-10-26T13:52:31.968Z,1.10
2017-10-26T13:54:59.871Z,1.20
2017-10-26T13:57:27.374Z,1.20
2017-10-26T13:59:56.111Z,1.77
2017-10-26T14:02:23.605Z,1.77
2017-10-26T14:04:51.125Z,1.00
2017-10-26T14:07:18.626Z,1.40
2017-10-26T14:09:46.915Z,1.40
2017-10-26T14:12:14.427Z,1.67
2017-10-26T14:14:43.079Z,1.13
2017-10-26T14:17:10.575Z,1.30
2017-10-26T14:19:38.850Z,1.10
2017-10-26T14:22:06.351Z,1.47
2017-10-26T14:24:33.872Z,1.37
2017-10-26T14:27:01.376Z,1.23
2017-10-26T14:29:28.903Z,1.20
2017-10-26T14:31:56.407Z,1.10
2017-10-26T14:34:24.702Z,1.30
2017-10-26T14:36:52.965Z,1.50
2017-10-26T14:39:20.478Z,1.90
2017-10-26T14:41:47.974Z,1.43
2017-10-26T14:44:15.495Z,1.30
2017-10-26T14:46:42.991Z,1.57
2017-10-26T14:49:11.275Z,1.40
2017-10-26T14:51:38.789Z,1.43
2017-10-26T14:54:06.315Z,1.77
2017-10-26T14:56:33.816Z,1.80
2017-10-26T14:59:02.104Z,1.40
2017-10-26T15:01:29.612Z,1.10
2017-10-26T15:03:57.519Z,1.27
2017-10-26T15:06:25.784Z,1.27
2017-10-26T15:08:54.451Z,1.50
2017-10-26T15:11:21.961Z,1.50
2017-10-26T15:13:49.866Z,1.17
2017-10-26T15:16:17.360Z,1.30
2017-10-26T15:18:46.383Z,1.60
2017-10-26T15:21:14.647Z,1.30
2017-10-26T15:23:42.570Z,1.20
2017-10-26T15:26:10.847Z,1.80
2017-10-26T15:28:38.756Z,1.60
2017-10-26T15:31:06.253Z,1.87
2017-10-26T15:33:34.906Z,1.57
2017-10-26T15:36:02.403Z,1.50
2017-10-26T15:38:30.312Z,1.77
2017-10-26T15:40:57.812Z,1.70
2017-10-26T15:43:26.094Z,1.17
2017-10-26T15:45:54.359Z,1.40
2017-10-26T15:48:22.652Z,1.93
2017-10-26T15:50:50.170Z,1.87
2017-10-26T15:53:17.695Z,1.60
2017-10-26T15:55:45.186Z,2.10
2017-10-26T15:58:13.094Z,2.30
2017-10-26T16:00:40.587Z,1.50
2017-10-26T16:03:08.487Z,2.10
2017-10-26T16:05:36.774Z,1.77
2017-10-26T16:08:04.663Z,2.00
2017-10-26T16:10:32.584Z,1.50
2017-10-26T16:13:00.083Z,2.33
2017-10-26T16:15:27.599Z,2.40
2017-10-26T16:17:55.095Z,2.50
2017-10-26T16:20:22.616Z,2.20
2017-10-26T16:22:50.508Z,2.90
2017-10-26T16:25:18.023Z,1.97
2017-10-26T16:27:46.290Z,2.93
2017-10-26T16:30:13.815Z,2.20
2017-10-26T16:32:42.442Z,3.17
2017-10-26T16:35:10.720Z,2.90
2017-10-26T16:37:38.616Z,2.57
2017-10-26T16:40:06.146Z,3.87
2017-10-26T16:42:33.658Z,3.10
2017-10-26T16:45:01.187Z,3.33
2017-10-26T16:47:28.683Z,3.13
2017-10-26T16:49:56.972Z,3.00
2017-10-26T16:52:25.247Z,3.53
2017-10-26T16:54:54.267Z,3.40
2017-10-26T16:57:21.763Z,3.50
2017-10-26T16:59:49.260Z,3.17
2017-10-26T17:02:16.768Z,2.93
2017-10-26T17:04:44.262Z,3.43
2017-10-26T17:07:11.758Z,2.80
2017-10-26T17:09:40.609Z,2.50
2017-10-26T17:12:08.500Z,2.73
2017-10-26T17:14:35.999Z,2.37
2017-10-26T17:17:03.497Z,2.00
2017-10-26T17:19:31.003Z,2.60
2017-10-26T17:21:59.632Z,2.90
2017-10-26T17:24:28.632Z,3.53
2017-10-26T17:26:56.131Z,3.30
2017-10-26T17:29:23.623Z,3.23
2017-10-26T17:31:51.122Z,3.00
2017-10-26T17:34:18.612Z,3.80
2017-10-26T17:36:46.111Z,3.30
2017-10-26T17:39:14.374Z,3.20
2017-10-26T17:41:42.646Z,3.30
2017-10-26T17:44:10.145Z,4.23
2017-10-26T17:46:37.641Z,3.13
2017-10-26T17:49:05.251Z,3.47
2017-10-26T17:51:32.755Z,2.50
2017-10-26T17:54:01.759Z,3.30
2017-10-26T17:56:29.263Z,3.30
2017-10-26T17:58:56.788Z,3.00
2017-10-26T18:01:24.695Z,3.83
2017-10-26T18:03:53.547Z,4.20
2017-10-26T18:06:21.051Z,3.87
2017-10-26T18:08:48.955Z,5.83
2017-10-26T18:11:17.151Z,5.83
2017-10-26T18:13:46.018Z,6.80
2017-10-26T18:16:13.516Z,7.30
2017-10-26T18:18:41.019Z,7.90
2017-10-26T18:21:08.523Z,7.40
2017-10-26T18:23:37.387Z,7.90
2017-10-26T18:26:05.664Z,7.83
2017-10-26T18:28:33.159Z,7.87
2017-10-26T18:31:01.428Z,8.73
2017-10-26T18:33:29.696Z,8.03
2017-10-26T18:35:58.545Z,8.13
2017-10-26T18:38:26.830Z,8.73
2017-10-26T18:40:54.339Z,7.20
2017-10-26T18:43:22.983Z,6.87
2017-10-26T18:45:51.258Z,7.23
2017-10-26T18:48:19.527Z,6.33
2017-10-26T18:50:47.803Z,6.77
2017-10-26T18:53:15.691Z,6.73
2017-10-26T18:55:43.195Z,8.57
2017-10-26T18:58:11.087Z,7.40
2017-10-26T19:00:39.351Z,8.63
2017-10-26T19:03:07.251Z,8.60
2017-10-26T19:05:34.747Z,7.17
2017-10-26T19:08:02.259Z,9.10
2017-10-26T19:10:29.763Z,10.00
2017-10-26T19:12:57.256Z,9.20
2017-10-26T19:15:25.525Z,9.43
2017-10-26T19:17:53.022Z,8.47
2017-10-26T19:20:20.531Z,9.40
2017-10-26T19:22:48.794Z,7.93
2017-10-26T19:25:16.688Z,8.40
2017-10-26T19:27:44.188Z,7.77
2017-10-26T19:30:11.712Z,6.80
2017-10-26T19:32:39.207Z,7.00
2017-10-26T19:35:06.703Z,6.23
2017-10-26T19:37:34.263Z,7.60
2017-10-26T19:40:01.767Z,6.30
2017-10-26T19:42:29.788Z,5.47
2017-10-26T19:44:57.299Z,6.50
2017-10-26T19:47:26.308Z,6.27
2017-10-26T19:49:53.833Z,5.43
2017-10-26T19:52:22.467Z,7.30
2017-10-26T19:54:49.972Z,7.97
2017-10-26T19:57:18.975Z,8.17
2017-10-26T19:59:46.688Z,8.40
2017-10-26T20:02:14.964Z,7.50
2017-10-26T20:04:42.475Z,7.87
2017-10-26T20:07:11.106Z,7.40
2017-10-26T20:09:38.638Z,7.60
2017-10-26T20:12:07.429Z,7.00
2017-10-26T20:14:34.955Z,7.07
2017-10-26T20:17:03.894Z,6.80
2017-10-26T20:19:31.406Z,5.80
2017-10-26T20:21:59.093Z,4.77
2017-10-26T20:24:26.583Z,3.53
2017-10-26T20:26:54.312Z,3.13
2017-10-26T20:29:23.158Z,3.40
2017-10-26T20:31:50.663Z,3.53
2017-10-26T20:34:18.154Z,3.20
2017-10-26T20:36:47.202Z,2.97
2017-10-26T20:39:14.702Z,3.23
2017-10-26T20:41:42.201Z,3.30
2017-10-26T20:44:10.267Z,2.60
2017-10-26T20:46:37.875Z,2.60
2017-10-26T20:49:11.032Z,3.13
2017-10-26T20:51:45.546Z,3.40
2017-10-26T20:54:29.859Z,5.20
2017-10-26T20:57:03.804Z,4.50
2017-10-26T20:59:36.883Z,3.67
2017-10-26T21:02:10.079Z,3.93
2017-10-26T21:04:43.148Z,3.57
2017-10-26T21:07:16.211Z,2.87
2017-10-26T21:09:44.484Z,3.13
2017-10-26T21:12:18.443Z,2.93
2017-10-26T21:14:46.063Z,3.37
2017-10-26T21:17:13.563Z,2.93
2017-10-26T21:19:41.180Z,3.23
2017-10-26T21:22:08.679Z,3.30
2017-10-26T21:24:36.291Z,3.70
2017-10-26T21:27:03.950Z,3.30
2017-10-26T21:29:32.020Z,3.23
2017-10-26T21:32:00.083Z,4.50
2017-10-26T21:34:28.347Z,3.47
2017-10-26T21:36:56.016Z,3.00
2017-10-26T21:39:24.870Z,3.00
2017-10-26T21:41:52.366Z,3.43
2017-10-26T21:44:20.625Z,3.60
2017-10-26T21:46:49.627Z,2.30
2017-10-26T21:49:17.143Z,2.30
2017-10-26T21:51:45.460Z,2.10
2017-10-26T21:54:13.346Z,1.87
2017-10-26T21:56:41.979Z,2.70
2017-10-26T21:59:10.063Z,2.30
2017-10-26T22:01:38.134Z,2.90
2017-10-26T22:04:06.021Z,3.10
2017-10-26T22:06:33.654Z,3.80
2017-10-26T22:09:02.512Z,3.43
2017-10-26T22:11:30.026Z,2.93
2017-10-26T22:13:57.654Z,2.47
2017-10-26T22:16:25.160Z,2.63
2017-10-26T22:18:52.651Z,2.97
2017-10-26T22:21:20.647Z,2.40
2017-10-26T22:23:48.286Z,2.73
2017-10-26T22:26:15.802Z,2.70
2017-10-26T22:28:43.403Z,2.17
2017-10-26T22:31:11.668Z,2.10
2017-10-26T22:33:39.571Z,2.00
2017-10-26T22:36:08.022Z,2.00
2017-10-26T22:38:35.510Z,2.57
2017-10-26T22:41:03.004Z,2.23
2017-10-26T22:43:31.281Z,2.00
2017-10-26T22:45:59.554Z,2.03
2017-10-26T22:48:28.380Z,1.90
2017-10-26T22:50:56.663Z,2.20
2017-10-26T22:53:24.179Z,2.37
2017-10-26T22:55:51.747Z,1.90
2017-10-26T22:58:19.408Z,1.90
2017-10-26T23:00:46.931Z,2.20
2017-10-26T23:03:15.331Z,2.90
2017-10-26T23:05:42.947Z,2.67
2017-10-26T23:08:10.431Z,2.50
2017-10-26T23:10:38.706Z,2.80
2017-10-26T23:13:06.799Z,2.90
2017-10-26T23:15:35.646Z,2.83
2017-10-26T23:18:03.330Z,2.97
2017-10-26T23:20:30.823Z,2.60
2017-10-26T23:22:58.705Z,3.23
2017-10-26T23:25:26.530Z,2.50
2017-10-26T23:27:54.812Z,2.50
2017-10-26T23:30:23.075Z,2.60
2017-10-26T23:32:51.330Z,2.63
2017-10-26T23:35:18.827Z,2.67
2017-10-26T23:37:46.451Z,2.67
2017-10-26T23:40:13.951Z,2.30
2017-10-26T23:42:42.383Z,2.70
2017-10-26T23:45:10.047Z,2.23
2017-10-26T23:47:37.943Z,2.10
2017-10-26T23:50:05.975Z,2.30
2017-10-26T23:52:33.487Z,2.60
2017-10-26T23:55:01.079Z,2.13
2017-10-26T23:57:28.738Z,2.20
2017-10-26T23:59:56.635Z,2.27
